Kang Sheng — VRXL3 — position and weather

sailwx.info

Track history (hours):
 
Tides and Currents Weather Stations Pressure Air Temp Water Temp Dewpoint Dewpoint Depression Visibility Wind Speed Wind Dir Waves Ship Positions

Kang Sheng

Last reported at 2015-Aug-31 09:24 UTC. Time now 2015-Sep-02 06:30 UTC.
Position N 29°57' W 089°60'.

Length 190 m; draft 8 m.

Type: Cargo ship. MMSI: 477977000.

Date/timePositionNaut miles runAvg speedWind from/ knotsBaromVisibWave heightAir tempDewpointWater temp
2015-Aug-31 09:24N 29°57' W 089°60'2 2.9
2015-Aug-31 08:34N 29°55' W 089°57'  
2015-Aug-28 08:12N 29°21' W 094°42'6 9.7
2015-Aug-28 07:33N 29°23' W 094°49'1211.8
2015-Aug-28 06:33N 29°34' W 094°55'1111.0
2015-Aug-28 05:33N 29°43' W 095°01'6 6.2
2015-Aug-28 04:32N 29°44' W 095°08'6 5.7
2015-Aug-28 03:33N 29°43' W 095°15'2 0.1
2015-Aug-27 12:14N 29°44' W 095°17'0 0.0
2015-Aug-27 11:32N 29°44' W 095°17'  
2015-Aug-24 07:32N 29°44' W 095°17'5 4.3
2015-Aug-24 06:27N 29°45' W 095°11'5 5.9
2015-Aug-24 05:33N 29°46' W 095°05'8 7.7
2015-Aug-24 04:33N 29°41' W 094°59'1111.0
2015-Aug-24 03:34N 29°31' W 094°53'1211.8
2015-Aug-24 02:34N 29°21' W 094°46'  
Track history (hours):
 
Tides and Currents Weather Stations Pressure Air Temp Water Temp Dewpoint Dewpoint Depression Visibility Wind Speed Wind Dir Waves Ship Positions

Kang Sheng

Last reported at 2015-Aug-31 09:24 UTC. Time now 2015-Sep-02 06:30 UTC.
Position N 29°57' W 089°60'.

Length 190 m; draft 8 m.

Type: Cargo ship. MMSI: 477977000.

Date/timePositionNaut miles runAvg speedWind from/ knotsBaromVisibWave heightAir tempDewpointWater temp
2015-Aug-31 09:24N 29°57' W 089°60'2 2.9
2015-Aug-31 08:34N 29°55' W 089°57'  
2015-Aug-28 08:12N 29°21' W 094°42'6 9.7
2015-Aug-28 07:33N 29°23' W 094°49'1211.8
2015-Aug-28 06:33N 29°34' W 094°55'1111.0
2015-Aug-28 05:33N 29°43' W 095°01'6 6.2
2015-Aug-28 04:32N 29°44' W 095°08'6 5.7
2015-Aug-28 03:33N 29°43' W 095°15'2 0.1
2015-Aug-27 12:14N 29°44' W 095°17'0 0.0
2015-Aug-27 11:32N 29°44' W 095°17'  
2015-Aug-24 07:32N 29°44' W 095°17'5 4.3
2015-Aug-24 06:27N 29°45' W 095°11'5 5.9
2015-Aug-24 05:33N 29°46' W 095°05'8 7.7
2015-Aug-24 04:33N 29°41' W 094°59'1111.0
2015-Aug-24 03:34N 29°31' W 094°53'1211.8
2015-Aug-24 02:34N 29°21' W 094°46'  

Dump ship's entire track history